Time;durP1;ratioP1;P1;durP2;ratioP2;P2;SDS_P1;SDS_P2;PMS_P1;PMS_P2;Temp;Humidity;BMP_temperature;BMP_pressure;BME280_temperature;BME280_humidity;BME280_pressure;Samples;Min_cycle;Max_cycle;Signal;HPM_P1;HPM_P2
2024/01/21 00:01:01;;;;;;;;;;;;;;;2.10;50.71;101974.62;5369125;32;35345;-70
2024/01/21 00:04:03;;;;;;;;;;;;;;;2.82;48.91;101953.50;5366085;32;34509;-70
2024/01/21 00:07:06;;;;;;;;;;;;;;;3.13;47.66;101960.09;5364701;32;34091;-70
2024/01/21 00:10:09;;;;;;;;;;;;;;;1.66;50.82;101965.87;5369273;32;34982;-71
2024/01/21 00:13:11;;;;;;;;;;;;;;;1.71;51.44;101969.44;5353730;32;35565;-69
2024/01/21 00:16:13;;;;;;;;;;;;;;;2.47;49.97;101963.25;5373025;32;38316;-70
2024/01/21 00:19:16;;;;;;;;;;;;;;;2.07;50.98;101959.00;5369384;32;34888;-70
2024/01/21 00:22:18;;;;;;;;;;;;;;;2.38;49.38;101966.56;5350014;32;34469;-69
2024/01/21 00:25:20;;;;;;;;;;;;;;;2.82;48.78;101957.84;5364991;32;34596;-69
2024/01/21 00:28:22;;;;;;;;;;;;;;;1.95;49.57;101959.63;5368033;32;34265;-69
2024/01/21 00:31:25;;;;;;;;;;;;;;;1.05;52.18;101968.78;5371816;32;34269;-69
2024/01/21 00:34:27;;;;;;;;;;;;;;;2.03;50.67;101965.84;5368058;32;34864;-70
2024/01/21 00:37:31;;;;;;;;;;;;;;;2.83;48.29;101964.78;5372466;32;34288;-71
2024/01/21 00:40:33;;;;;;;;;;;;;;;2.65;48.31;101971.41;5373842;32;34225;-69
2024/01/21 00:43:37;;;;;;;;;;;;;;;2.68;48.18;101973.16;5369170;32;35299;-69
2024/01/21 00:46:39;;;;;;;;;;;;;;;2.65;47.99;101970.53;5368552;32;35120;-70
2024/01/21 00:49:41;;;;;;;;;;;;;;;2.48;48.28;101977.09;5354329;32;34499;-70
2024/01/21 00:52:44;;;;;;;;;;;;;;;1.55;50.40;101976.88;5371763;32;34273;-69
2024/01/21 00:55:46;;;;;;;;;;;;;;;0.65;53.47;101978.94;5367334;32;35637;-69
2024/01/21 00:58:48;;;;;;;;;;;;;;;1.30;52.11;101982.34;5363355;32;36644;-69
2024/01/21 01:01:50;;;;;;;;;;;;;;;2.16;50.08;101978.22;5365460;32;34497;-70
2024/01/21 01:04:52;;;;;;;;;;;;;;;2.54;48.73;101979.81;5371486;32;34376;-70
2024/01/21 01:07:54;;;;;;;;;;;;;;;2.50;48.53;101980.59;5355274;32;35306;-70
2024/01/21 01:10:57;;;;;;;;;;;;;;;2.57;48.37;101969.50;5369788;32;34857;-70
2024/01/21 01:13:59;;;;;;;;;;;;;;;2.33;48.84;101968.19;5360591;32;35277;-70
2024/01/21 01:17:01;;;;;;;;;;;;;;;1.66;50.02;101973.66;5355770;32;35390;-70
2024/01/21 01:20:03;;;;;;;;;;;;;;;2.33;48.75;101962.13;5375217;32;34402;-69
2024/01/21 01:23:06;;;;;;;;;;;;;;;2.52;48.75;101958.16;5357458;32;34195;-70
2024/01/21 01:26:08;;;;;;;;;;;;;;;2.84;47.85;101957.03;5371123;32;35071;-69
2024/01/21 01:29:10;;;;;;;;;;;;;;;2.98;47.19;101965.06;5355738;32;35814;-68
2024/01/21 01:32:12;;;;;;;;;;;;;;;2.29;48.80;101960.31;5363207;32;34856;-69
2024/01/21 01:35:14;;;;;;;;;;;;;;;2.19;49.01;101959.25;5374822;32;34087;-70
2024/01/21 01:38:16;;;;;;;;;;;;;;;2.14;49.05;101938.41;5364302;32;34964;-70
2024/01/21 01:41:18;;;;;;;;;;;;;;;2.14;48.81;101943.59;5369385;32;34574;-69
2024/01/21 01:44:21;;;;;;;;;;;;;;;2.28;48.40;101937.81;5369735;32;35424;-69
2024/01/21 01:47:23;;;;;;;;;;;;;;;2.73;47.19;101950.75;5373606;32;35260;-69
2024/01/21 01:50:25;;;;;;;;;;;;;;;2.46;47.03;101948.53;5369911;32;36007;-70
2024/01/21 01:53:28;;;;;;;;;;;;;;;2.49;46.82;101952.91;5355350;32;35145;-70
2024/01/21 01:56:30;;;;;;;;;;;;;;;2.33;47.21;101956.94;5356864;32;35034;-69
2024/01/21 01:59:32;;;;;;;;;;;;;;;2.00;47.46;101960.59;5350353;32;34226;-69
2024/01/21 02:02:34;;;;;;;;;;;;;;;1.20;49.42;101962.22;5347234;32;834987;-69
2024/01/21 02:05:36;;;;;;;;;;;;;;;1.53;49.78;101963.00;5368468;32;34164;-70
2024/01/21 02:08:39;;;;;;;;;;;;;;;2.20;48.37;101961.00;5358781;32;34490;-69
2024/01/21 02:11:41;;;;;;;;;;;;;;;2.54;47.86;101966.84;5369749;32;34436;-69
2024/01/21 02:14:43;;;;;;;;;;;;;;;2.60;47.40;101967.84;5369513;32;35362;-69
2024/01/21 02:17:45;;;;;;;;;;;;;;;2.56;47.84;101966.03;5373572;32;35378;-70
2024/01/21 02:20:49;;;;;;;;;;;;;;;3.06;46.70;101972.97;5369440;32;34283;-70
2024/01/21 02:23:51;;;;;;;;;;;;;;;2.70;46.45;101976.66;5366928;32;34634;-72
2024/01/21 02:26:53;;;;;;;;;;;;;;;2.90;46.31;101977.03;5366713;32;35519;-69
2024/01/21 02:29:55;;;;;;;;;;;;;;;2.13;47.89;101991.12;5357201;32;35540;-70
2024/01/21 02:32:57;;;;;;;;;;;;;;;2.09;48.30;101991.91;5368255;32;34543;-69
2024/01/21 02:35:59;;;;;;;;;;;;;;;2.95;46.48;102002.22;5369227;32;35035;-70
2024/01/21 02:39:02;;;;;;;;;;;;;;;2.83;46.55;101995.94;5364835;32;34529;-69
2024/01/21 02:42:04;;;;;;;;;;;;;;;2.51;47.32;101995.31;5365395;32;35238;-69
2024/01/21 02:45:06;;;;;;;;;;;;;;;2.54;47.49;101998.00;5360235;32;35621;-69
2024/01/21 02:48:08;;;;;;;;;;;;;;;2.73;47.01;102000.09;5368958;32;34775;-70
2024/01/21 02:51:14;;;;;;;;;;;;;;;2.89;46.26;102001.25;5372667;32;36000;-70
2024/01/21 02:54:16;;;;;;;;;;;;;;;2.88;46.30;101997.75;5356756;32;35047;-69
2024/01/21 02:57:18;;;;;;;;;;;;;;;2.48;46.96;102006.53;5367175;32;34471;-69
2024/01/21 03:00:20;;;;;;;;;;;;;;;1.28;49.78;102020.25;5361138;32;34707;-69
2024/01/21 03:03:23;;;;;;;;;;;;;;;1.63;49.16;102014.22;5352698;32;34878;-69
2024/01/21 03:06:25;;;;;;;;;;;;;;;1.89;48.72;102020.00;5373013;32;34955;-69
2024/01/21 03:09:27;;;;;;;;;;;;;;;1.32;50.45;102027.28;5368813;32;35227;-69
2024/01/21 03:12:29;;;;;;;;;;;;;;;0.54;51.79;102039.03;5370852;32;35308;-69
2024/01/21 03:15:32;;;;;;;;;;;;;;;1.06;51.22;102037.84;5358011;32;35036;-69
2024/01/21 03:18:38;;;;;;;;;;;;;;;0.68;52.33;102035.94;5368943;32;34659;-69
2024/01/21 03:21:41;;;;;;;;;;;;;;;0.75;52.02;102036.16;5368310;32;35772;-69
2024/01/21 03:24:43;;;;;;;;;;;;;;;-0.12;54.59;102038.81;5364854;32;35301;-69
2024/01/21 03:27:45;;;;;;;;;;;;;;;0.86;52.50;102031.28;5356382;32;34339;-69
2024/01/21 03:30:50;;;;;;;;;;;;;;;1.00;51.71;102039.41;5368371;32;35792;-69
2024/01/21 03:33:52;;;;;;;;;;;;;;;0.70;52.33;102048.09;5355544;32;35072;-69
2024/01/21 03:36:55;;;;;;;;;;;;;;;1.01;52.07;102038.56;5371916;32;35595;-69
2024/01/21 03:39:57;;;;;;;;;;;;;;;0.13;53.74;102053.34;5342011;32;35114;-69
2024/01/21 03:42:59;;;;;;;;;;;;;;;-0.35;56.51;102063.03;5372220;32;34803;-69
2024/01/21 03:46:02;;;;;;;;;;;;;;;0.29;54.50;102065.03;5368752;32;34269;-69
2024/01/21 03:49:04;;;;;;;;;;;;;;;1.31;51.75;102048.84;5373766;32;34424;-69
2024/01/21 03:52:06;;;;;;;;;;;;;;;0.39;53.81;102054.13;5367469;32;34257;-70
2024/01/21 03:55:08;;;;;;;;;;;;;;;0.38;54.11;102059.22;5354856;32;35031;-69
2024/01/21 03:58:10;;;;;;;;;;;;;;;1.00;52.37;102060.13;5363321;32;34263;-70
2024/01/21 04:01:13;;;;;;;;;;;;;;;1.07;52.46;102067.22;5342061;32;34822;-70
2024/01/21 04:04:15;;;;;;;;;;;;;;;1.34;51.81;102061.84;5356877;32;35353;-70
2024/01/21 04:07:18;;;;;;;;;;;;;;;1.31;52.11;102066.97;5353982;32;35281;-69
2024/01/21 04:10:20;;;;;;;;;;;;;;;1.45;51.30;102067.31;5373002;32;34328;-70
2024/01/21 04:13:22;;;;;;;;;;;;;;;1.82;50.29;102058.72;5367635;32;34779;-70
2024/01/21 04:16:25;;;;;;;;;;;;;;;1.15;51.44;102064.81;5354345;32;34441;-70
2024/01/21 04:19:27;;;;;;;;;;;;;;;1.58;50.86;102062.47;5373421;32;34761;-69
2024/01/21 04:22:29;;;;;;;;;;;;;;;0.45;53.34;102063.75;5353977;32;35568;-69
2024/01/21 04:25:31;;;;;;;;;;;;;;;0.33;53.47;102051.34;5353050;32;35017;-70
2024/01/21 04:28:33;;;;;;;;;;;;;;;0.07;54.89;102060.94;5353290;32;35009;-70
2024/01/21 04:31:35;;;;;;;;;;;;;;;0.79;52.87;102058.69;5372061;32;34482;-69
2024/01/21 04:34:37;;;;;;;;;;;;;;;0.24;54.11;102061.41;5368487;32;34506;-70
2024/01/21 04:37:40;;;;;;;;;;;;;;;-0.10;54.75;102060.41;5352856;32;34843;-70
2024/01/21 04:40:42;;;;;;;;;;;;;;;-0.49;56.30;102051.38;5371494;32;35510;-69
2024/01/21 04:43:44;;;;;;;;;;;;;;;-0.96;57.99;102058.44;5353893;32;34887;-69
2024/01/21 04:46:46;;;;;;;;;;;;;;;0.21;54.73;102058.75;5372459;32;34767;-69
2024/01/21 04:49:48;;;;;;;;;;;;;;;0.05;54.57;102051.34;5354484;32;34780;-69
2024/01/21 04:52:50;;;;;;;;;;;;;;;-0.47;56.97;102049.72;5372230;32;34549;-70
2024/01/21 04:55:53;;;;;;;;;;;;;;;0.20;54.49;102049.25;5367578;32;34192;-68
2024/01/21 04:58:55;;;;;;;;;;;;;;;-0.45;56.43;102068.72;5352470;32;35486;-70
2024/01/21 05:01:58;;;;;;;;;;;;;;;-0.53;56.54;102065.00;5357354;32;35385;-70
2024/01/21 05:05:01;;;;;;;;;;;;;;;-0.35;56.10;102070.78;5366806;32;34919;-68
2024/01/21 05:08:03;;;;;;;;;;;;;;;-0.38;55.68;102070.69;5357977;32;35471;-68
2024/01/21 05:11:05;;;;;;;;;;;;;;;-0.13;55.67;102073.25;5368331;32;35083;-70
2024/01/21 05:14:07;;;;;;;;;;;;;;;0.31;54.76;102071.09;5371408;32;35678;-69
2024/01/21 05:17:10;;;;;;;;;;;;;;;-0.30;55.74;102080.44;5368286;32;34832;-68
2024/01/21 05:20:12;;;;;;;;;;;;;;;-0.21;55.01;102079.84;5353603;32;34340;-69
2024/01/21 05:23:14;;;;;;;;;;;;;;;-0.47;56.50;102081.59;5370918;32;34366;-68
2024/01/21 05:26:16;;;;;;;;;;;;;;;-0.44;56.45;102084.28;5350890;32;35613;-68
2024/01/21 05:29:18;;;;;;;;;;;;;;;-0.59;56.74;102094.09;5372146;32;34673;-69
2024/01/21 05:32:20;;;;;;;;;;;;;;;0.52;54.06;102094.16;5353296;32;34560;-71
2024/01/21 05:35:23;;;;;;;;;;;;;;;0.90;52.59;102095.25;5371661;32;34309;-71
2024/01/21 05:38:25;;;;;;;;;;;;;;;0.83;52.56;102095.88;5351202;32;35567;-70
2024/01/21 05:41:28;;;;;;;;;;;;;;;0.69;53.25;102092.03;5367144;32;33420;-69
2024/01/21 05:44:30;;;;;;;;;;;;;;;-0.38;55.91;102106.88;5371831;32;34732;-69
2024/01/21 05:47:32;;;;;;;;;;;;;;;-0.60;56.98;102111.31;5352353;32;35162;-69
2024/01/21 05:50:35;;;;;;;;;;;;;;;-0.31;56.21;102119.16;5372587;32;34166;-70
2024/01/21 05:53:38;;;;;;;;;;;;;;;0.20;54.51;102121.66;5369190;32;34307;-70
2024/01/21 05:56:40;;;;;;;;;;;;;;;0.50;54.31;102119.97;5370612;32;35025;-69
2024/01/21 05:59:42;;;;;;;;;;;;;;;0.14;54.92;102116.28;5352756;32;35029;-69
2024/01/21 06:02:45;;;;;;;;;;;;;;;0.70;53.42;102120.53;5367173;32;35383;-70
2024/01/21 06:05:47;;;;;;;;;;;;;;;0.39;54.38;102125.69;5359091;32;34573;-69
2024/01/21 06:08:49;;;;;;;;;;;;;;;1.05;52.97;102128.44;5369680;32;35123;-69
2024/01/21 06:11:51;;;;;;;;;;;;;;;0.99;52.64;102136.91;5355416;32;35005;-70
2024/01/21 06:14:53;;;;;;;;;;;;;;;0.89;53.01;102134.87;5365491;32;34269;-69
2024/01/21 06:17:56;;;;;;;;;;;;;;;0.43;54.04;102151.66;5371803;32;34749;-69
2024/01/21 06:20:58;;;;;;;;;;;;;;;0.20;54.74;102143.22;5372102;32;34800;-69
2024/01/21 06:24:00;;;;;;;;;;;;;;;1.40;51.73;102150.09;5353801;32;35484;-70
2024/01/21 06:27:03;;;;;;;;;;;;;;;1.26;51.75;102154.03;5371378;32;34882;-69
2024/01/21 06:30:14;;;;;;;;;;;;;;;1.34;51.02;102157.72;5369758;32;34655;-70
2024/01/21 06:33:17;;;;;;;;;;;;;;;1.15;51.73;102155.44;5357220;32;34819;-70
2024/01/21 06:36:19;;;;;;;;;;;;;;;0.61;53.79;102173.75;5355030;32;35512;-69
2024/01/21 06:39:21;;;;;;;;;;;;;;;1.27;52.04;102166.16;5364751;32;34880;-69
2024/01/21 06:42:23;;;;;;;;;;;;;;;1.19;51.81;102162.47;5372157;32;35707;-70
2024/01/21 06:45:26;;;;;;;;;;;;;;;0.73;52.66;102164.66;5369460;32;34754;-70
2024/01/21 06:48:28;;;;;;;;;;;;;;;0.85;52.38;102163.25;5373527;32;35296;-70
2024/01/21 06:51:46;;;;;;;;;;;;;;;0.25;53.90;102164.03;5368675;32;34879;-70
2024/01/21 06:54:49;;;;;;;;;;;;;;;0.34;53.81;102181.56;5373614;32;35066;-69
2024/01/21 06:57:51;;;;;;;;;;;;;;;1.30;51.33;102168.84;5351168;32;35106;-69
2024/01/21 07:00:54;;;;;;;;;;;;;;;1.23;51.40;102167.81;5364427;32;34647;-69
2024/01/21 07:03:56;;;;;;;;;;;;;;;0.75;51.71;102170.75;5356585;32;34784;-70
2024/01/21 07:06:59;;;;;;;;;;;;;;;0.47;53.37;102178.53;5368214;32;35510;-70
2024/01/21 07:10:01;;;;;;;;;;;;;;;1.75;50.58;102168.31;5359503;32;34610;-69
2024/01/21 07:13:03;;;;;;;;;;;;;;;2.13;48.90;102171.84;5368290;32;34280;-71
2024/01/21 07:16:05;;;;;;;;;;;;;;;1.43;50.61;102170.06;5358783;32;34283;-70
2024/01/21 07:19:07;;;;;;;;;;;;;;;0.58;52.87;102174.56;5369997;32;34772;-70
2024/01/21 07:22:10;;;;;;;;;;;;;;;0.85;52.55;102186.56;5368960;32;35465;-70
2024/01/21 07:25:14;;;;;;;;;;;;;;;0.66;52.83;102179.94;5370928;32;34607;-70
2024/01/21 07:28:17;;;;;;;;;;;;;;;1.43;51.45;102186.47;5367371;32;35358;-70
2024/01/21 07:31:19;;;;;;;;;;;;;;;0.76;51.93;102200.09;5372898;32;34557;-70
2024/01/21 07:34:22;;;;;;;;;;;;;;;1.62;50.23;102190.44;5354823;32;35712;-70
2024/01/21 07:37:24;;;;;;;;;;;;;;;1.13;51.49;102202.03;5372230;32;35343;-69
2024/01/21 07:40:27;;;;;;;;;;;;;;;1.29;51.24;102198.19;5363110;32;34657;-71
2024/01/21 07:43:29;;;;;;;;;;;;;;;0.50;52.98;102212.22;5354090;32;35539;-68
2024/01/21 07:46:31;;;;;;;;;;;;;;;0.03;54.94;102219.34;5372998;32;34755;-69
2024/01/21 07:49:33;;;;;;;;;;;;;;;1.52;51.68;102206.56;5368755;32;34952;-70
2024/01/21 07:52:36;;;;;;;;;;;;;;;1.01;51.35;102214.62;5372521;32;34845;-70
2024/01/21 07:55:39;;;;;;;;;;;;;;;1.78;50.07;102202.94;5368104;32;35261;-70
2024/01/21 07:58:41;;;;;;;;;;;;;;;1.68;50.25;102208.75;5352324;32;34291;-69
2024/01/21 08:01:43;;;;;;;;;;;;;;;0.67;52.82;102220.53;5368177;32;34900;-69
2024/01/21 08:04:45;;;;;;;;;;;;;;;0.62;52.82;102222.97;5366726;32;35550;-70
2024/01/21 08:07:47;;;;;;;;;;;;;;;0.49;53.74;102218.25;5372006;32;35445;-70
2024/01/21 08:10:49;;;;;;;;;;;;;;;1.52;51.21;102214.34;5353887;32;35084;-70
2024/01/21 08:13:52;;;;;;;;;;;;;;;1.38;51.30;102218.28;5372924;32;35305;-69
2024/01/21 08:16:54;;;;;;;;;;;;;;;1.44;51.41;102223.63;5368265;32;34770;-70
2024/01/21 08:19:56;;;;;;;;;;;;;;;0.77;53.25;102233.81;5366849;32;34236;-68
2024/01/21 08:22:58;;;;;;;;;;;;;;;0.42;54.45;102237.88;5370917;32;34648;-70
2024/01/21 08:26:02;;;;;;;;;;;;;;;0.60;54.49;102250.50;5365767;32;35044;-68
2024/01/21 08:29:04;;;;;;;;;;;;;;;0.94;53.98;102230.81;5358180;32;35509;-70
2024/01/21 08:32:07;;;;;;;;;;;;;;;1.60;52.39;102243.94;5353183;32;34465;-69
2024/01/21 08:35:10;;;;;;;;;;;;;;;1.85;52.04;102248.06;5359118;32;35725;-70
2024/01/21 08:38:12;;;;;;;;;;;;;;;0.60;54.79;102247.94;5340301;32;35450;-70
2024/01/21 08:41:14;;;;;;;;;;;;;;;0.94;54.28;102251.53;5363380;32;34906;-70
2024/01/21 08:44:16;;;;;;;;;;;;;;;1.38;53.58;102255.41;5370958;32;34633;-69
2024/01/21 08:47:18;;;;;;;;;;;;;;;1.59;53.61;102268.09;5347883;32;34659;-69
2024/01/21 08:50:21;;;;;;;;;;;;;;;1.52;53.80;102269.63;5358185;32;34779;-69
2024/01/21 08:53:23;;;;;;;;;;;;;;;1.39;53.54;102274.44;5353737;32;35402;-70
2024/01/21 08:56:25;;;;;;;;;;;;;;;1.25;53.64;102285.28;5343239;32;34625;-68
2024/01/21 08:59:27;;;;;;;;;;;;;;;0.66;54.60;102292.09;5344250;32;35241;-69
2024/01/21 09:02:29;;;;;;;;;;;;;;;0.56;55.20;102289.16;5367319;32;34732;-69
2024/01/21 09:05:32;;;;;;;;;;;;;;;0.97;54.42;102293.94;5356489;32;35458;-69
2024/01/21 09:08:34;;;;;;;;;;;;;;;0.97;54.53;102293.94;5352689;32;34296;-70
2024/01/21 09:11:36;;;;;;;;;;;;;;;1.39;53.53;102302.94;5369865;32;34212;-70
2024/01/21 09:14:38;;;;;;;;;;;;;;;1.19;53.64;102290.28;5352793;32;34799;-70
2024/01/21 09:17:41;;;;;;;;;;;;;;;1.40;52.59;102310.75;5372011;32;34743;-70
2024/01/21 09:20:43;;;;;;;;;;;;;;;1.82;51.43;102303.31;5366638;32;34720;-69
2024/01/21 09:23:45;;;;;;;;;;;;;;;1.32;52.81;102317.41;5366343;32;35019;-71
2024/01/21 09:26:47;;;;;;;;;;;;;;;0.76;53.70;102303.63;5356298;32;34762;-69
2024/01/21 09:29:50;;;;;;;;;;;;;;;1.64;53.00;102310.56;5368873;32;34247;-68
2024/01/21 09:32:52;;;;;;;;;;;;;;;2.10;51.98;102306.62;5359144;32;34874;-69
2024/01/21 09:35:54;;;;;;;;;;;;;;;2.22;51.35;102300.87;5369268;32;34742;-69
2024/01/21 09:38:56;;;;;;;;;;;;;;;1.43;53.19;102310.84;5365990;32;34635;-69
2024/01/21 09:41:59;;;;;;;;;;;;;;;2.76;49.86;102297.87;5365110;32;34718;-69
2024/01/21 09:45:01;;;;;;;;;;;;;;;2.00;49.87;102300.34;5369733;32;34695;-70
2024/01/21 09:48:04;;;;;;;;;;;;;;;1.08;53.47;102302.91;5373857;32;35221;-69
2024/01/21 09:51:07;;;;;;;;;;;;;;;1.38;52.52;102311.53;5354672;32;34223;-71
2024/01/21 09:54:10;;;;;;;;;;;;;;;1.44;52.13;102311.72;5373780;32;34437;-70
2024/01/21 09:57:13;;;;;;;;;;;;;;;2.21;50.59;102312.09;5365198;32;34126;-70
2024/01/21 10:00:16;;;;;;;;;;;;;;;2.55;50.12;102306.03;5373323;32;34571;-70
2024/01/21 10:03:18;;;;;;;;;;;;;;;1.72;50.67;102313.38;5341501;32;34450;-70
2024/01/21 10:06:20;;;;;;;;;;;;;;;1.58;51.79;102319.06;5354154;32;34653;-71
2024/01/21 10:09:22;;;;;;;;;;;;;;;2.83;48.54;102308.44;5359283;32;34449;-70
2024/01/21 10:12:25;;;;;;;;;;;;;;;2.57;49.00;102302.62;5368970;32;34637;-70
2024/01/21 10:15:29;;;;;;;;;;;;;;;3.31;47.47;102293.91;5373742;32;35108;-71
2024/01/21 10:18:31;;;;;;;;;;;;;;;2.86;48.48;102295.53;5368637;32;35438;-71
2024/01/21 10:21:33;;;;;;;;;;;;;;;3.06;48.69;102306.38;5373371;32;34316;-70
2024/01/21 10:24:38;;;;;;;;;;;;;;;3.32;47.86;102303.47;5368185;32;34339;-69
2024/01/21 10:27:44;;;;;;;;;;;;;;;3.36;47.74;102300.97;5352900;32;35487;-70
2024/01/21 10:30:46;;;;;;;;;;;;;;;1.90;50.34;102300.91;5359305;32;35272;-71
2024/01/21 10:33:48;;;;;;;;;;;;;;;2.37;49.90;102303.84;5368799;32;34215;-70
2024/01/21 10:36:51;;;;;;;;;;;;;;;3.46;47.50;102299.41;5357711;32;34710;-70
2024/01/21 10:39:53;;;;;;;;;;;;;;;6.84;42.54;102284.06;5352749;32;34914;-72
2024/01/21 10:42:58;;;;;;;;;;;;;;;5.12;42.25;102293.59;5357439;32;34941;-70
2024/01/21 10:46:01;;;;;;;;;;;;;;;7.58;38.54;102275.69;5357706;32;34552;-69
2024/01/21 10:49:03;;;;;;;;;;;;;;;6.69;40.12;102281.34;5354146;32;35054;-70
2024/01/21 10:52:14;;;;;;;;;;;;;;;9.29;36.05;102268.72;5358950;32;35105;-71
2024/01/21 10:55:16;;;;;;;;;;;;;;;11.53;31.61;102258.06;5369029;32;35235;-69
2024/01/21 10:58:18;;;;;;;;;;;;;;;10.52;32.77;102253.94;5355508;32;34823;-71
2024/01/21 11:01:20;;;;;;;;;;;;;;;11.18;30.77;102263.75;5367930;32;34498;-72
2024/01/21 11:04:23;;;;;;;;;;;;;;;9.81;33.07;102273.72;5354569;32;34466;-70
2024/01/21 11:07:25;;;;;;;;;;;;;;;9.13;35.21;102273.13;5371793;32;34327;-69
2024/01/21 11:10:27;;;;;;;;;;;;;;;10.93;32.16;102261.41;5368575;32;34784;-70
2024/01/21 11:13:39;;;;;;;;;;;;;;;10.02;33.54;102266.56;5358873;32;34947;-70
2024/01/21 11:16:41;;;;;;;;;;;;;;;8.39;34.72;102280.25;5368573;32;35383;-70
2024/01/21 11:19:53;;;;;;;;;;;;;;;9.01;34.64;102275.78;5373911;32;34761;-71
2024/01/21 11:22:58;;;;;;;;;;;;;;;10.68;32.82;102259.91;5369393;32;35610;-70
2024/01/21 11:26:01;;;;;;;;;;;;;;;9.15;34.79;102251.28;5351665;32;34118;-70
2024/01/21 11:29:07;;;;;;;;;;;;;;;8.97;35.72;102261.81;5358885;32;34772;-71
2024/01/21 11:32:09;;;;;;;;;;;;;;;7.25;38.01;102260.75;5365860;32;35915;-72
2024/01/21 11:35:17;;;;;;;;;;;;;;;6.28;39.81;102267.97;5373010;32;34699;-70
2024/01/21 11:38:21;;;;;;;;;;;;;;;8.02;37.23;102253.13;5349465;32;36370;-73
2024/01/21 11:41:24;;;;;;;;;;;;;;;8.85;35.42;102251.34;5370473;32;34800;-70
2024/01/21 11:44:30;;;;;;;;;;;;;;;10.54;33.66;102242.50;5357714;32;34938;-70
2024/01/21 11:47:32;;;;;;;;;;;;;;;9.75;34.01;102253.59;5354847;32;36555;-72
2024/01/21 11:50:35;;;;;;;;;;;;;;;11.64;31.07;102246.47;5372658;32;36870;-70
2024/01/21 11:53:37;;;;;;;;;;;;;;;10.69;32.47;102257.28;5367595;32;35298;-70
2024/01/21 11:56:39;;;;;;;;;;;;;;;9.80;33.29;102250.97;5369523;32;35353;-70
2024/01/21 11:59:44;;;;;;;;;;;;;;;8.25;35.99;102255.75;5362964;32;36122;-72
2024/01/21 12:02:46;;;;;;;;;;;;;;;7.60;37.81;102252.19;5353410;32;34946;-70
2024/01/21 12:05:49;;;;;;;;;;;;;;;10.99;32.36;102224.50;5371655;32;35509;-71
2024/01/21 12:08:51;;;;;;;;;;;;;;;11.09;32.01;102235.81;5368037;32;34415;-70
2024/01/21 12:11:58;;;;;;;;;;;;;;;9.43;34.27;102240.66;5372346;32;34972;-71
2024/01/21 12:15:00;;;;;;;;;;;;;;;8.82;36.30;102239.13;5354159;32;34602;-69
2024/01/21 12:18:04;;;;;;;;;;;;;;;9.37;34.56;102238.06;5372362;32;34355;-70
2024/01/21 12:21:07;;;;;;;;;;;;;;;11.62;31.52;102231.59;5368878;32;34838;-71
2024/01/21 12:24:09;;;;;;;;;;;;;;;11.26;31.99;102225.03;5364607;32;34368;-70
2024/01/21 12:27:14;;;;;;;;;;;;;;;11.96;30.72;102231.13;5356388;32;34884;-70
2024/01/21 12:30:16;;;;;;;;;;;;;;;11.91;30.63;102226.81;5354045;32;35030;-72
2024/01/21 12:33:19;;;;;;;;;;;;;;;13.91;27.95;102214.09;5358212;32;34737;-70
2024/01/21 12:36:21;;;;;;;;;;;;;;;11.33;31.05;102222.34;5367134;32;34485;-70
2024/01/21 12:39:23;;;;;;;;;;;;;;;12.26;30.29;102220.09;5364944;32;35442;-70
2024/01/21 12:42:26;;;;;;;;;;;;;;;13.87;27.81;102217.72;5368370;32;34789;-71
2024/01/21 12:45:28;;;;;;;;;;;;;;;10.92;31.58;102233.34;5367727;32;34383;-71
2024/01/21 12:48:30;;;;;;;;;;;;;;;9.60;34.13;102241.44;5372294;32;35795;-70
2024/01/21 12:51:33;;;;;;;;;;;;;;;10.57;32.79;102236.38;5353602;32;35237;-70
2024/01/21 12:54:35;;;;;;;;;;;;;;;9.86;34.25;102235.16;5372683;32;34316;-71
2024/01/21 12:57:37;;;;;;;;;;;;;;;13.12;29.79;102219.34;5351281;32;34656;-71
2024/01/21 13:00:39;;;;;;;;;;;;;;;9.41;34.28;102226.69;5348067;32;35037;-73
2024/01/21 13:03:43;;;;;;;;;;;;;;;10.77;33.11;102230.91;5365598;32;35325;-71
2024/01/21 13:06:45;;;;;;;;;;;;;;;13.17;29.53;102219.25;5352511;32;35049;-71
2024/01/21 13:09:48;;;;;;;;;;;;;;;11.72;30.85;102227.06;5357716;32;35036;-71
2024/01/21 13:12:51;;;;;;;;;;;;;;;12.22;30.85;102225.44;5367099;32;34642;-71
2024/01/21 13:15:53;;;;;;;;;;;;;;;14.40;27.45;102220.78;5371869;32;34869;-69
2024/01/21 13:18:56;;;;;;;;;;;;;;;13.79;28.04;102225.84;5353025;32;34635;-71
2024/01/21 13:22:05;;;;;;;;;;;;;;;15.66;25.63;102213.72;5362073;32;34949;-70
2024/01/21 13:25:07;;;;;;;;;;;;;;;13.55;28.00;102229.87;5367998;32;35053;-70
2024/01/21 13:31:41;;;;;;;;;;;;;;;12.93;29.72;102223.25;5361453;32;34659;-70
2024/01/21 13:34:43;;;;;;;;;;;;;;;13.50;28.47;102215.91;5353612;32;34783;-70
2024/01/21 13:37:45;;;;;;;;;;;;;;;14.70;26.81;102207.72;5368352;32;35436;-70
2024/01/21 13:40:48;;;;;;;;;;;;;;;16.14;25.43;102210.38;5360716;32;35302;-71
2024/01/21 13:43:50;;;;;;;;;;;;;;;16.59;24.39;102212.38;5366515;32;35421;-71
2024/01/21 13:46:52;;;;;;;;;;;;;;;15.30;25.98;102212.16;5371643;32;35236;-72
2024/01/21 13:49:54;;;;;;;;;;;;;;;14.91;26.49;102217.69;5366973;32;34319;-71
2024/01/21 13:52:59;;;;;;;;;;;;;;;14.34;26.79;102218.31;5357632;32;34556;-72
2024/01/21 13:56:02;;;;;;;;;;;;;;;13.17;28.32;102221.88;5352870;32;34923;-70
2024/01/21 13:59:04;;;;;;;;;;;;;;;9.48;34.65;102238.88;5354523;32;34452;-71
2024/01/21 14:02:09;;;;;;;;;;;;;;;8.81;35.37;102239.13;5355028;32;34199;-71
2024/01/21 14:05:16;;;;;;;;;;;;;;;9.33;35.28;102229.31;5360307;32;35418;-71
2024/01/21 14:08:19;;;;;;;;;;;;;;;9.38;35.33;102221.44;5365888;32;34734;-70
2024/01/21 14:11:21;;;;;;;;;;;;;;;11.13;32.35;102211.16;5352910;32;33987;-69
2024/01/21 14:14:23;;;;;;;;;;;;;;;10.85;32.41;102211.50;5360389;32;34729;-69
2024/01/21 14:17:28;;;;;;;;;;;;;;;10.48;33.01;102215.41;5369879;32;34898;-70
2024/01/21 14:20:30;;;;;;;;;;;;;;;10.94;32.72;102215.78;5357006;32;34745;-70
2024/01/21 14:23:32;;;;;;;;;;;;;;;11.77;31.09;102212.06;5358126;32;34225;-69
2024/01/21 14:26:35;;;;;;;;;;;;;;;9.20;35.18;102225.00;5353198;32;34962;-70
2024/01/21 14:29:38;;;;;;;;;;;;;;;8.68;36.79;102239.13;5369017;32;35236;-70
2024/01/21 14:32:41;;;;;;;;;;;;;;;9.00;36.45;102245.19;5369597;32;34743;-69
2024/01/21 14:35:43;;;;;;;;;;;;;;;9.27;36.11;102245.09;5374444;32;34716;-70
2024/01/21 14:38:46;;;;;;;;;;;;;;;6.09;42.13;102259.09;5350103;32;34776;-71
2024/01/21 14:41:48;;;;;;;;;;;;;;;7.21;40.87;102265.94;5351193;32;35189;-71
2024/01/21 14:44:50;;;;;;;;;;;;;;;7.70;40.33;102264.41;5373892;32;35459;-69
2024/01/21 14:47:52;;;;;;;;;;;;;;;6.86;42.14;102271.88;5368693;32;34812;-71
2024/01/21 14:50:55;;;;;;;;;;;;;;;7.71;39.58;102258.28;5374108;32;34762;-71
2024/01/21 14:53:57;;;;;;;;;;;;;;;7.26;40.72;102267.72;5355788;32;34656;-70
2024/01/21 14:56:59;;;;;;;;;;;;;;;6.98;41.46;102271.06;5371064;32;35169;-71
2024/01/21 15:00:02;;;;;;;;;;;;;;;6.53;42.44;102276.88;5369949;32;34961;-71
2024/01/21 15:03:04;;;;;;;;;;;;;;;5.70;44.44;102282.16;5354237;32;34801;-70
2024/01/21 15:06:06;;;;;;;;;;;;;;;5.82;44.56;102288.38;5358642;32;34187;-70
2024/01/21 15:09:09;;;;;;;;;;;;;;;5.89;44.53;102293.66;5368794;32;35345;-71
2024/01/21 15:12:12;;;;;;;;;;;;;;;5.06;46.42;102304.81;5373581;32;36300;-72
2024/01/21 15:15:17;;;;;;;;;;;;;;;5.12;46.66;102312.72;5369717;32;35040;-69
2024/01/21 15:18:19;;;;;;;;;;;;;;;4.96;47.06;102307.25;5359497;32;34812;-69
2024/01/21 15:21:34;;;;;;;;;;;;;;;5.05;47.03;102310.88;5372151;32;35441;-68
2024/01/21 15:24:37;;;;;;;;;;;;;;;5.16;46.59;102311.03;5353227;32;35261;-69
2024/01/21 15:27:40;;;;;;;;;;;;;;;4.71;47.49;102319.06;5371835;32;34536;-70
2024/01/21 15:30:43;;;;;;;;;;;;;;;4.72;47.83;102310.38;5354619;32;34708;-70
2024/01/21 15:33:45;;;;;;;;;;;;;;;4.29;48.32;102304.47;5360510;32;34367;-69
2024/01/21 15:36:49;;;;;;;;;;;;;;;4.40;48.87;102318.56;5368331;32;34695;-71
2024/01/21 15:39:52;;;;;;;;;;;;;;;4.26;49.36;102326.13;5359740;32;34368;-71
2024/01/21 15:42:55;;;;;;;;;;;;;;;3.39;52.09;102327.00;5370394;32;34836;-68
2024/01/21 15:45:57;;;;;;;;;;;;;;;3.59;51.51;102334.34;5369115;32;35126;-69
2024/01/21 15:49:00;;;;;;;;;;;;;;;4.04;49.98;102321.37;5373971;32;34545;-70
2024/01/21 15:52:02;;;;;;;;;;;;;;;4.00;50.27;102327.38;5355008;32;34740;-70